Time;durP1;ratioP1;P1;durP2;ratioP2;P2;SDS_P1;SDS_P2;PMS_P1;PMS_P2;Temp;Humidity;BMP_temperature;BMP_pressure;BME280_temperature;BME280_humidity;BME280_pressure;Samples;Min_cycle;Max_cycle;Signal;HPM_P1;HPM_P2
2023/03/30 00:00:00;;;;;;;8.03;3.63;;;2.70;84.10;;;;;;5019326;28;20195;-81
2023/03/30 00:02:30;;;;;;;6.87;4.73;;;2.80;84.80;;;;;;5052810;28;20187;-81
2023/03/30 00:05:01;;;;;;;6.47;3.73;;;2.70;85.80;;;;;;5053951;28;20182;-81
2023/03/30 00:07:29;;;;;;;6.80;3.60;;;2.80;85.60;;;;;;5039712;28;20255;-81
2023/03/30 00:09:55;;;;;;;7.67;3.43;;;2.80;86.60;;;;;;5055333;28;20625;-81
2023/03/30 00:12:21;;;;;;;7.47;3.30;;;2.70;86.30;;;;;;5055296;28;20186;-81
2023/03/30 00:14:47;;;;;;;10.67;3.77;;;2.70;85.70;;;;;;5054958;28;20183;-81
2023/03/30 00:17:13;;;;;;;8.43;3.17;;;2.70;86.10;;;;;;5056095;28;20232;-81
2023/03/30 00:19:39;;;;;;;3.20;2.90;;;2.70;86.30;;;;;;5055091;28;20182;-81
2023/03/30 00:22:07;;;;;;;6.13;3.13;;;2.70;85.20;;;;;;5022184;28;20198;-80
2023/03/30 00:24:36;;;;;;;3.87;2.23;;;2.80;84.90;;;;;;5056124;28;20215;-81
2023/03/30 00:27:03;;;;;;;2.13;1.87;;;2.80;85.90;;;;;;5054913;28;20366;-80
2023/03/30 00:29:28;;;;;;;5.13;3.63;;;2.80;84.90;;;;;;5054893;28;20708;-81
2023/03/30 00:31:54;;;;;;;2.43;1.90;;;2.80;85.20;;;;;;5054607;28;20647;-81
2023/03/30 00:34:20;;;;;;;3.93;2.13;;;2.80;84.20;;;;;;5056007;28;20179;-81
2023/03/30 00:36:48;;;;;;;3.40;2.03;;;2.80;85.30;;;;;;5054839;28;20182;-81
2023/03/30 00:39:17;;;;;;;8.67;3.73;;;2.90;83.60;;;;;;5038438;28;20183;-81
2023/03/30 00:41:44;;;;;;;3.83;2.50;;;2.90;83.40;;;;;;5054766;28;20271;-81
2023/03/30 00:44:47;;;;;;;5.27;2.07;;;2.90;83.60;;;;;;5054883;28;20262;-81
2023/03/30 00:47:15;;;;;;;4.87;2.33;;;3.00;83.40;;;;;;5054730;28;20213;-81
2023/03/30 00:49:40;;;;;;;2.97;2.27;;;3.00;82.40;;;;;;5054445;28;20237;-82
2023/03/30 00:52:08;;;;;;;3.87;2.23;;;3.00;82.10;;;;;;5038311;28;20183;-81
2023/03/30 00:54:35;;;;;;;2.33;2.13;;;3.00;82.20;;;;;;5055836;28;20184;-81
2023/03/30 00:57:01;;;;;;;4.67;2.17;;;3.00;81.90;;;;;;5038142;28;20193;-80
2023/03/30 00:59:27;;;;;;;4.57;2.60;;;3.00;81.80;;;;;;5056221;28;20526;-81
2023/03/30 01:01:52;;;;;;;4.30;2.40;;;3.00;81.80;;;;;;5054997;28;20186;-81
2023/03/30 01:04:19;;;;;;;8.07;2.90;;;3.00;82.10;;;;;;5039521;28;20187;-81
2023/03/30 01:06:47;;;;;;;3.17;2.63;;;3.00;82.40;;;;;;5057162;28;20680;-81
2023/03/30 01:09:14;;;;;;;3.20;2.50;;;3.00;82.30;;;;;;5054703;28;20211;-81
2023/03/30 01:11:41;;;;;;;3.03;2.30;;;3.00;82.30;;;;;;5021691;28;20255;-82
2023/03/30 01:14:10;;;;;;;6.33;2.83;;;3.00;82.20;;;;;;5062148;28;20202;-81
2023/03/30 01:16:54;;;;;;;4.20;3.37;;;3.00;82.40;;;;;;5074881;28;20185;-81
2023/03/30 01:19:53;;;;;;;5.57;3.20;;;3.00;83.40;;;;;;5077305;28;20179;-82
2023/03/30 01:22:37;;;;;;;6.20;2.50;;;3.00;82.70;;;;;;5063890;28;20180;-81
2023/03/30 01:25:09;;;;;;;4.60;2.77;;;3.00;82.50;;;;;;5053684;28;20179;-81
2023/03/30 01:27:44;;;;;;;4.17;1.77;;;3.00;83.20;;;;;;5072549;28;20203;-81
2023/03/30 01:30:29;;;;;;;6.70;1.80;;;3.00;83.40;;;;;;5077044;28;20177;-81
2023/03/30 01:33:20;;;;;;;7.07;2.30;;;3.00;83.00;;;;;;5078830;28;20174;-81
2023/03/30 01:35:46;;;;;;;4.20;2.63;;;;;;;;;;5069084;28;20201;-81
2023/03/30 01:38:23;;;;;;;3.40;2.50;;;3.00;83.70;;;;;;5054718;28;20237;-81
2023/03/30 01:41:18;;;;;;;10.07;3.20;;;2.90;85.10;;;;;;5054387;28;20161;-81
2023/03/30 01:43:57;;;;;;;10.17;3.67;;;2.90;85.70;;;;;;5053322;28;20301;-82
2023/03/30 01:46:32;;;;;;;5.73;2.43;;;2.90;85.00;;;;;;5054959;28;20166;-81
2023/03/30 01:49:07;;;;;;;8.50;3.70;;;2.90;85.80;;;;;;5054581;28;20171;-81
2023/03/30 01:51:43;;;;;;;5.90;2.43;;;2.90;85.80;;;;;;5053502;28;20173;-81
2023/03/30 01:54:22;;;;;;;3.07;2.43;;;2.80;86.00;;;;;;5054524;28;20164;-81
2023/03/30 01:57:01;;;;;;;8.93;3.37;;;2.80;85.60;;;;;;5054089;28;20174;-82
2023/03/30 01:59:32;;;;;;;5.20;2.83;;;2.90;85.80;;;;;;5054588;28;20171;-81
2023/03/30 02:02:02;;;;;;;5.50;2.83;;;2.80;87.10;;;;;;5053950;28;20163;-81
2023/03/30 02:04:32;;;;;;;5.23;3.13;;;2.90;86.80;;;;;;5054736;28;20235;-81
2023/03/30 02:07:09;;;;;;;4.57;2.77;;;2.90;87.00;;;;;;5052569;28;20200;-81
2023/03/30 02:09:37;;;;;;;8.17;2.63;;;2.90;87.50;;;;;;5055634;28;20656;-80
2023/03/30 02:12:04;;;;;;;6.47;2.67;;;2.90;86.50;;;;;;5060903;28;20171;-81
2023/03/30 02:14:33;;;;;;;4.27;3.27;;;2.90;87.40;;;;;;5061700;28;20179;-81
2023/03/30 02:17:13;;;;;;;2.93;2.23;;;2.90;87.40;;;;;;5061101;28;20250;-81
2023/03/30 02:19:38;;;;;;;6.73;2.27;;;2.90;87.70;;;;;;5070068;28;20178;-80
2023/03/30 02:22:05;;;;;;;6.30;3.60;;;2.90;87.90;;;;;;5078514;28;20179;-81
2023/03/30 02:24:32;;;;;;;4.77;2.73;;;2.90;88.00;;;;;;5078313;28;20180;-81
2023/03/30 02:27:03;;;;;;;10.43;3.70;;;2.90;88.00;;;;;;5060565;28;20196;-82
2023/03/30 02:29:29;;;;;;;9.30;4.33;;;;;;;;;;5073022;28;20185;-81
2023/03/30 02:31:57;;;;;;;6.67;3.73;;;2.80;88.60;;;;;;5067967;28;20188;-81
2023/03/30 02:34:29;;;;;;;6.77;3.20;;;2.80;89.10;;;;;;5074158;28;20237;-81
2023/03/30 02:36:55;;;;;;;4.13;2.90;;;2.80;88.90;;;;;;5078273;28;20187;-85
2023/03/30 02:39:46;;;;;;;7.50;2.53;;;2.70;89.20;;;;;;5077954;28;20173;-81
2023/03/30 02:42:32;;;;;;;6.97;2.57;;;2.70;89.60;;;;;;5066801;28;20184;-80
2023/03/30 02:45:25;;;;;;;3.10;2.57;;;2.70;90.00;;;;;;5053625;28;20183;-81
2023/03/30 02:48:14;;;;;;;4.77;2.17;;;2.60;89.30;;;;;;5054723;28;20279;-81
2023/03/30 02:51:10;;;;;;;5.47;2.13;;;2.60;89.80;;;;;;5054857;28;20168;-81
2023/03/30 02:54:02;;;;;;;2.90;2.60;;;2.60;89.40;;;;;;5053633;28;20184;-80
2023/03/30 02:56:41;;;;;;;4.50;2.47;;;2.50;89.70;;;;;;5053597;28;20294;-81
2023/03/30 02:59:16;;;;;;;6.73;3.10;;;2.50;89.90;;;;;;5054644;28;20161;-80
2023/03/30 03:01:49;;;;;;;6.73;3.20;;;2.50;89.60;;;;;;5054421;28;20162;-80
2023/03/30 03:04:17;;;;;;;5.87;2.80;;;2.50;90.00;;;;;;5055075;28;20216;-80
2023/03/30 03:06:44;;;;;;;7.53;3.17;;;2.40;90.20;;;;;;5054241;28;20192;-80
2023/03/30 03:09:10;;;;;;;8.10;3.10;;;2.40;90.30;;;;;;5054217;28;20189;-80
2023/03/30 03:11:35;;;;;;;4.03;2.43;;;2.30;90.10;;;;;;5054741;28;20184;-80
2023/03/30 03:14:02;;;;;;;10.60;3.07;;;2.30;90.40;;;;;;5036052;28;20245;-80
2023/03/30 03:16:27;;;;;;;4.47;3.07;;;2.30;90.60;;;;;;5052259;28;20659;-82
2023/03/30 03:18:53;;;;;;;3.60;2.43;;;2.20;90.40;;;;;;5051977;28;20227;-82
2023/03/30 03:21:19;;;;;;;2.17;1.97;;;2.20;90.70;;;;;;5053451;28;20187;-81
2023/03/30 03:23:47;;;;;;;6.63;3.07;;;2.20;90.40;;;;;;5052148;28;20188;-81
2023/03/30 03:26:13;;;;;;;3.90;2.90;;;2.10;90.10;;;;;;5052919;28;20596;-81
2023/03/30 03:28:38;;;;;;;3.73;2.57;;;2.10;90.50;;;;;;5053053;28;20192;-80
2023/03/30 03:31:04;;;;;;;8.10;3.93;;;2.10;90.30;;;;;;5051722;28;20190;-81
2023/03/30 03:33:30;;;;;;;13.03;4.97;;;2.10;90.10;;;;;;5053028;28;20172;-80
2023/03/30 03:35:58;;;;;;;19.33;7.07;;;2.00;90.00;;;;;;5052837;28;20269;-80
2023/03/30 03:38:27;;;;;;;15.07;8.77;;;2.00;89.20;;;;;;5052010;28;20253;-80
2023/03/30 03:40:55;;;;;;;9.60;4.40;;;1.90;90.00;;;;;;5055905;28;20184;-81
2023/03/30 03:43:22;;;;;;;5.40;3.27;;;1.90;89.90;;;;;;5055119;28;20236;-81
2023/03/30 03:45:49;;;;;;;9.20;2.93;;;1.90;88.00;;;;;;5055031;28;20253;-81
2023/03/30 03:48:16;;;;;;;8.30;5.27;;;1.80;88.50;;;;;;5054775;28;20220;-81
2023/03/30 03:50:43;;;;;;;22.03;9.80;;;1.80;89.30;;;;;;5055804;28;20212;-82
2023/03/30 03:53:11;;;;;;;8.80;5.33;;;1.80;88.40;;;;;;5054485;28;20649;-81
2023/03/30 03:55:37;;;;;;;9.80;4.50;;;1.80;88.50;;;;;;5054139;28;20184;-80
2023/03/30 03:58:05;;;;;;;3.30;3.00;;;1.70;88.60;;;;;;5054894;28;20184;-80
2023/03/30 04:00:30;;;;;;;7.37;3.07;;;1.80;88.60;;;;;;5055216;28;20539;-81
2023/03/30 04:02:57;;;;;;;4.53;3.53;;;1.70;89.00;;;;;;5054937;28;20188;-83
2023/03/30 04:05:23;;;;;;;4.77;2.93;;;1.70;88.30;;;;;;5054804;28;20187;-81
2023/03/30 04:07:49;;;;;;;3.50;2.77;;;1.60;88.00;;;;;;5054307;28;20208;-82
2023/03/30 04:10:14;;;;;;;5.97;2.40;;;1.70;88.80;;;;;;5021281;28;20199;-81
2023/03/30 04:12:40;;;;;;;5.53;3.03;;;1.60;88.80;;;;;;5055857;28;20211;-81
2023/03/30 04:15:06;;;;;;;4.47;3.03;;;1.70;88.90;;;;;;5037961;28;20184;-83
2023/03/30 04:17:33;;;;;;;3.90;3.13;;;1.60;89.40;;;;;;5055870;28;20232;-82
2023/03/30 04:20:01;;;;;;;14.10;5.00;;;1.60;89.30;;;;;;5054506;28;20187;-81
2023/03/30 04:22:29;;;;;;;12.23;5.13;;;1.60;89.80;;;;;;5056001;28;20174;-81
2023/03/30 04:24:55;;;;;;;9.90;4.03;;;1.60;90.30;;;;;;5054508;28;20538;-82
2023/03/30 04:27:24;;;;;;;4.40;3.20;;;1.60;90.50;;;;;;5035011;28;20292;-81
2023/03/30 04:29:50;;;;;;;8.17;2.80;;;1.70;90.50;;;;;;5038513;28;20188;-81
2023/03/30 04:32:19;;;;;;;7.13;3.43;;;1.70;90.50;;;;;;5054129;28;20263;-81
2023/03/30 04:34:46;;;;;;;7.10;4.40;;;1.70;91.00;;;;;;5054621;28;20181;-81
2023/03/30 04:37:17;;;;;;;14.60;5.03;;;1.80;90.60;;;;;;5054228;28;20191;-81
2023/03/30 04:39:43;;;;;;;14.43;4.60;;;1.80;90.50;;;;;;5038911;28;20168;-81
2023/03/30 04:42:12;;;;;;;7.00;3.63;;;1.90;91.00;;;;;;5037658;28;20267;-80
2023/03/30 04:44:39;;;;;;;8.20;3.87;;;1.90;91.40;;;;;;5055458;28;20172;-81
2023/03/30 04:47:05;;;;;;;11.90;4.17;;;2.00;91.60;;;;;;5053997;28;20312;-82
2023/03/30 04:49:31;;;;;;;13.33;4.00;;;2.00;91.70;;;;;;5055423;28;20221;-81
2023/03/30 04:51:57;;;;;;;5.33;2.73;;;2.00;91.50;;;;;;5037687;28;20178;-81
2023/03/30 04:54:23;;;;;;;4.10;2.67;;;2.00;91.60;;;;;;5052524;28;20266;-83
2023/03/30 04:56:48;;;;;;;6.73;3.03;;;2.10;90.90;;;;;;5046369;28;20712;-82
2023/03/30 04:59:14;;;;;;;5.37;3.33;;;2.10;91.70;;;;;;5052069;28;20258;-83
2023/03/30 05:01:40;;;;;;;7.67;3.10;;;2.10;91.00;;;;;;5037300;28;20668;-83
2023/03/30 05:04:06;;;;;;;17.43;3.70;;;2.20;91.30;;;;;;5041996;28;20292;-83
2023/03/30 05:06:33;;;;;;;4.57;2.40;;;2.20;90.80;;;;;;5046028;28;20204;-82
2023/03/30 05:08:59;;;;;;;6.90;2.77;;;;;;;;;;5028847;28;20647;-83
2023/03/30 05:11:25;;;;;;;2.97;2.57;;;2.30;87.70;;;;;;5047219;28;20274;-82
2023/03/30 05:13:52;;;;;;;10.13;3.23;;;2.50;93.10;;;;;;5052962;28;20174;-82
2023/03/30 05:16:18;;;;;;;4.17;2.57;;;2.40;89.60;;;;;;5034747;28;20763;-81
2023/03/30 05:18:44;;;;;;;7.53;3.00;;;2.50;88.50;;;;;;5047029;28;20240;-84
2023/03/30 05:21:10;;;;;;;4.07;2.80;;;2.50;87.40;;;;;;5052247;28;20202;-81
2023/03/30 05:23:38;;;;;;;7.63;3.10;;;2.50;86.90;;;;;;5031241;28;20549;-81
2023/03/30 05:26:06;;;;;;;4.90;2.50;;;2.60;87.90;;;;;;5051505;28;20198;-84
2023/03/30 05:28:32;;;;;;;5.43;3.23;;;2.60;88.30;;;;;;5054653;28;20210;-82
2023/03/30 05:30:58;;;;;;;10.33;4.17;;;2.60;86.70;;;;;;5018311;28;20187;-81
2023/03/30 05:33:24;;;;;;;3.93;2.17;;;2.70;88.00;;;;;;5027154;28;20963;-81
2023/03/30 05:35:50;;;;;;;7.20;2.67;;;2.70;86.90;;;;;;5048883;28;20215;-82
2023/03/30 05:38:16;;;;;;;4.20;2.73;;;2.70;88.00;;;;;;5042976;28;20185;-84
2023/03/30 05:40:43;;;;;;;5.03;3.23;;;2.70;86.90;;;;;;5046403;28;20186;-81
2023/03/30 05:43:09;;;;;;;2.53;1.90;;;2.80;87.20;;;;;;5050210;28;20269;-82
2023/03/30 05:45:35;;;;;;;2.50;1.93;;;2.80;86.80;;;;;;5049151;28;20589;-81
2023/03/30 05:48:01;;;;;;;2.67;2.23;;;2.80;87.10;;;;;;5048884;28;20207;-82
2023/03/30 05:50:27;;;;;;;3.33;2.27;;;2.80;87.10;;;;;;5051070;28;20215;-82
2023/03/30 05:52:52;;;;;;;2.87;2.17;;;2.70;87.70;;;;;;5042718;28;20184;-81
2023/03/30 05:55:18;;;;;;;4.50;2.67;;;2.90;87.90;;;;;;5052265;28;20627;-82
2023/03/30 05:57:44;;;;;;;2.73;2.50;;;2.90;88.50;;;;;;5051893;28;20214;-81
2023/03/30 06:00:12;;;;;;;6.10;2.30;;;3.00;87.10;;;;;;5034534;28;20266;-81
2023/03/30 06:02:39;;;;;;;7.70;2.20;;;3.00;87.40;;;;;;5034211;28;20240;-81
2023/03/30 06:05:05;;;;;;;3.13;2.03;;;3.00;86.90;;;;;;5032764;28;20289;-82
2023/03/30 06:07:31;;;;;;;2.97;2.10;;;3.10;86.30;;;;;;5050287;28;20278;-80
2023/03/30 06:09:58;;;;;;;4.43;2.30;;;;;;;;;;5017765;28;20291;-83
2023/03/30 06:12:24;;;;;;;2.63;2.13;;;3.10;85.90;;;;;;5048064;28;20193;-83
2023/03/30 06:14:50;;;;;;;3.70;1.87;;;3.20;87.70;;;;;;5048578;28;20191;-82
2023/03/30 06:17:16;;;;;;;5.53;2.00;;;3.20;87.70;;;;;;5050067;28;20238;-83
2023/03/30 06:19:41;;;;;;;4.07;2.70;;;3.30;87.10;;;;;;5044598;28;20270;-82
2023/03/30 06:22:08;;;;;;;3.93;1.90;;;;;;;;;;5047068;28;20682;-81
2023/03/30 06:24:34;;;;;;;3.27;2.77;;;;;;;;;;5046757;28;20182;-80
2023/03/30 06:27:01;;;;;;;2.30;2.00;;;3.40;84.80;;;;;;5031795;28;20242;-82
2023/03/30 06:29:27;;;;;;;6.50;2.77;;;3.40;85.60;;;;;;5041359;28;20263;-81
2023/03/30 06:31:53;;;;;;;4.60;2.23;;;3.50;84.80;;;;;;5029292;28;20190;-81
2023/03/30 06:34:19;;;;;;;10.23;2.80;;;3.50;86.40;;;;;;5050107;28;20188;-82
2023/03/30 06:36:45;;;;;;;5.13;2.00;;;3.40;84.70;;;;;;5046096;28;20278;-81
2023/03/30 06:39:12;;;;;;;5.87;2.60;;;3.40;85.40;;;;;;5033617;28;20244;-84
2023/03/30 06:41:38;;;;;;;3.27;2.00;;;1.30;83.70;;;;;;5050471;28;20604;-82
2023/03/30 06:44:05;;;;;;;3.03;2.23;;;3.50;86.70;;;;;;5048591;28;20351;-83
2023/03/30 06:46:32;;;;;;;4.90;2.10;;;3.60;86.50;;;;;;5026681;28;20207;-81
2023/03/30 06:48:58;;;;;;;1.73;1.60;;;3.70;87.10;;;;;;5037972;28;20539;-82
2023/03/30 06:51:23;;;;;;;3.93;2.00;;;3.70;87.30;;;;;;5046349;28;20191;-81
2023/03/30 06:53:49;;;;;;;7.10;2.97;;;3.80;86.00;;;;;;5025623;28;20637;-80
2023/03/30 06:56:15;;;;;;;2.53;1.97;;;3.90;85.80;;;;;;5042817;28;20193;-81
2023/03/30 06:58:41;;;;;;;1.87;1.73;;;4.00;85.10;;;;;;5044980;28;20179;-81
2023/03/30 07:01:14;;;;;;;1.93;1.20;;;3.90;83.60;;;;;;5050581;28;20195;-82
2023/03/30 07:03:40;;;;;;;4.03;2.07;;;4.00;85.30;;;;;;5051901;28;20186;-81
2023/03/30 07:06:07;;;;;;;10.77;2.80;;;4.10;84.30;;;;;;5030430;28;20195;-81
2023/03/30 07:08:34;;;;;;;1.70;1.57;;;4.10;82.60;;;;;;5047220;28;20216;-82
2023/03/30 07:11:01;;;;;;;2.63;1.87;;;4.20;84.40;;;;;;5051348;28;20242;-82
2023/03/30 07:13:27;;;;;;;2.43;1.93;;;4.30;83.00;;;;;;5033822;28;20199;-81
2023/03/30 07:15:52;;;;;;;3.83;2.40;;;4.50;83.60;;;;;;5051320;28;20551;-80
2023/03/30 07:18:18;;;;;;;3.17;1.77;;;4.50;81.80;;;;;;5047961;28;20693;-81
2023/03/30 07:20:44;;;;;;;4.73;1.90;;;4.60;82.40;;;;;;5049421;28;20202;-80
2023/03/30 07:23:10;;;;;;;1.60;1.50;;;4.80;83.60;;;;;;5041359;28;20196;-81
2023/03/30 07:25:38;;;;;;;2.13;1.90;;;4.80;81.60;;;;;;5056642;28;20190;-80
2023/03/30 07:28:07;;;;;;;1.97;1.43;;;4.90;81.70;;;;;;5062838;28;20208;-80
2023/03/30 07:30:34;;;;;;;2.87;1.87;;;5.00;80.90;;;;;;5064664;28;20195;-80
2023/03/30 07:33:00;;;;;;;7.77;2.23;;;4.90;81.00;;;;;;5052255;28;20661;-80
2023/03/30 07:35:25;;;;;;;3.40;2.17;;;5.00;81.90;;;;;;5035015;28;20200;-80
2023/03/30 07:37:51;;;;;;;3.90;2.27;;;5.30;90.50;;;;;;5027629;28;20641;-80
2023/03/30 07:40:18;;;;;;;4.63;2.10;;;5.40;82.80;;;;;;5044644;28;20260;-80
2023/03/30 07:42:44;;;;;;;3.07;1.70;;;5.70;82.30;;;;;;5055226;28;20191;-80
2023/03/30 07:45:10;;;;;;;3.43;1.97;;;6.00;82.00;;;;;;5054790;28;20169;-80
2023/03/30 07:47:36;;;;;;;2.53;2.03;;;6.10;80.30;;;;;;5056572;28;20207;-79
2023/03/30 07:50:03;;;;;;;1.87;1.77;;;6.10;80.80;;;;;;5050124;28;20180;-80
2023/03/30 07:52:28;;;;;;;6.23;2.00;;;6.10;80.00;;;;;;5032291;28;20235;-80
2023/03/30 07:54:55;;;;;;;2.57;2.03;;;6.30;82.90;;;;;;5032114;28;20290;-80
2023/03/30 07:57:22;;;;;;;4.87;1.57;;;6.30;79.20;;;;;;5016099;28;20189;-81
2023/03/30 07:59:47;;;;;;;2.60;1.60;;;6.20;79.60;;;;;;5033353;28;20231;-80
2023/03/30 08:02:13;;;;;;;4.80;2.60;;;6.40;80.50;;;;;;5015720;28;20189;-80
2023/03/30 08:04:40;;;;;;;3.17;2.20;;;6.20;80.00;;;;;;5033259;28;20181;-80
2023/03/30 08:07:06;;;;;;;4.70;3.03;;;6.40;81.20;;;;;;5033118;28;20263;-80
2023/03/30 08:09:32;;;;;;;4.00;2.50;;;6.60;80.40;;;;;;5032027;28;20180;-80
2023/03/30 08:11:58;;;;;;;5.13;2.37;;;7.00;81.60;;;;;;5031794;28;20188;-79
2023/03/30 08:14:26;;;;;;;3.33;2.33;;;7.20;81.30;;;;;;5033580;28;20695;-80
2023/03/30 08:16:52;;;;;;;4.57;2.10;;;7.30;79.60;;;;;;5038879;28;20180;-80
2023/03/30 08:19:20;;;;;;;4.27;2.10;;;7.40;80.70;;;;;;5048370;28;20192;-80
2023/03/30 08:21:46;;;;;;;7.70;3.00;;;7.40;78.70;;;;;;5046217;28;20212;-81
2023/03/30 08:24:11;;;;;;;4.67;2.70;;;7.40;79.80;;;;;;5033503;28;20173;-80
2023/03/30 08:26:37;;;;;;;3.63;2.03;;;7.50;80.30;;;;;;5056705;28;20586;-80
2023/03/30 08:29:03;;;;;;;19.47;2.40;;;7.50;79.30;;;;;;5055504;28;20188;-81
2023/03/30 08:31:31;;;;;;;3.70;2.13;;;7.40;81.00;;;;;;5059847;28;20192;-82
2023/03/30 08:33:57;;;;;;;6.00;2.10;;;7.50;81.90;;;;;;5060656;28;20157;-81
2023/03/30 08:36:24;;;;;;;4.13;2.77;;;7.60;81.00;;;;;;5033052;28;20189;-85
2023/03/30 08:38:50;;;;;;;7.17;2.43;;;7.70;81.30;;;;;;5057836;28;20219;-79
2023/03/30 08:41:22;;;;;;;3.80;1.73;;;7.80;81.50;;;;;;5059822;28;20191;-81
2023/03/30 08:44:00;;;;;;;4.77;2.33;;;7.90;81.60;;;;;;5060216;28;20161;-82
2023/03/30 08:46:27;;;;;;;4.00;2.13;;;8.00;81.90;;;;;;5042218;28;20177;-81
2023/03/30 08:48:56;;;;;;;5.20;2.40;;;8.10;80.50;;;;;;5036834;28;20181;-83
2023/03/30 08:51:30;;;;;;;8.13;3.93;;;8.10;80.00;;;;;;5035612;28;20253;-82
2023/03/30 08:54:04;;;;;;;12.17;2.77;;;8.10;82.20;;;;;;5036850;28;20184;-81
2023/03/30 08:56:34;;;;;;;3.73;2.30;;;8.10;82.80;;;;;;5036391;28;20226;-82
2023/03/30 08:59:00;;;;;;;9.33;3.40;;;8.20;83.60;;;;;;5034655;28;20645;-81
2023/03/30 09:01:45;;;;;;;5.30;2.93;;;8.40;82.90;;;;;;5034283;28;20268;-85
2023/03/30 09:04:33;;;;;;;7.27;3.63;;;8.40;82.20;;;;;;5034973;28;20219;-82
2023/03/30 09:07:11;;;;;;;3.37;2.83;;;8.40;81.90;;;;;;5035910;28;20218;-82
2023/03/30 09:09:42;;;;;;;5.30;2.70;;;8.50;81.00;;;;;;5035582;28;20169;-82
2023/03/30 09:12:12;;;;;;;7.27;2.77;;;8.40;80.70;;;;;;5034554;28;20538;-82
2023/03/30 09:14:47;;;;;;;9.43;3.10;;;8.20;82.10;;;;;;5033881;28;20181;-82
2023/03/30 09:17:19;;;;;;;2.67;2.40;;;8.50;82.00;;;;;;5035754;28;20585;-81
2023/03/30 09:20:00;;;;;;;4.27;2.47;;;8.40;82.60;;;;;;5035499;28;20172;-82
2023/03/30 09:22:41;;;;;;;7.30;3.27;;;8.50;82.90;;;;;;5035806;28;20298;-82
2023/03/30 09:25:40;;;;;;;3.23;2.40;;;8.80;83.80;;;;;;5035681;28;20164;-82
2023/03/30 09:28:17;;;;;;;4.77;2.67;;;9.00;81.50;;;;;;5034394;28;20215;-82
2023/03/30 09:31:27;;;;;;;4.67;2.17;;;9.20;82.40;;;;;;5034041;28;20192;-82
2023/03/30 09:34:26;;;;;;;5.50;2.80;;;9.20;81.30;;;;;;5035322;28;20172;-81
2023/03/30 09:37:12;;;;;;;13.37;3.63;;;9.30;81.00;;;;;;5032491;28;20262;-81
2023/03/30 09:39:40;;;;;;;5.77;3.93;;;9.40;81.60;;;;;;5033714;28;20549;-82
2023/03/30 09:42:47;;;;;;;6.47;2.53;;;9.50;83.30;;;;;;5033764;28;20665;-82
2023/03/30 09:45:16;;;;;;;7.63;2.73;;;9.70;80.20;;;;;;5030139;28;20233;-82
2023/03/30 09:47:42;;;;;;;5.60;3.40;;;9.90;81.10;;;;;;5033048;28;20236;-81
2023/03/30 09:50:21;;;;;;;3.67;1.70;;;10.10;79.30;;;;;;5034832;28;20261;-81
2023/03/30 09:52:57;;;;;;;7.37;2.50;;;10.20;77.60;;;;;;5033306;28;20180;-82
2023/03/30 09:55:29;;;;;;;3.60;2.53;;;9.70;79.40;;;;;;5034454;28;20179;-81
2023/03/30 09:58:09;;;;;;;4.67;2.80;;;9.60;81.50;;;;;;5034125;28;20275;-82
2023/03/30 10:00:35;;;;;;;5.13;2.57;;;9.70;82.00;;;;;;5032853;28;20191;-82
2023/03/30 10:03:05;;;;;;;4.30;2.70;;;9.80;80.90;;;;;;5033292;28;20184;-82
2023/03/30 10:05:33;;;;;;;5.00;2.63;;;9.80;81.20;;;;;;5034249;28;20176;-82
2023/03/30 10:08:04;;;;;;;3.55;1.90;;;9.90;81.40;;;;;;5032956;28;20307;-82
2023/03/30 10:10:35;;;;;;;3.80;2.23;;;9.90;81.30;;;;;;5034450;28;20223;-81
2023/03/30 10:13:11;;;;;;;3.20;2.07;;;9.90;81.40;;;;;;5033087;28;20199;-81
2023/03/30 10:15:42;;;;;;;3.03;2.07;;;9.70;81.70;;;;;;5032503;28;20184;-82
2023/03/30 10:18:17;;;;;;;1.87;1.40;;;9.60;82.50;;;;;;5032897;28;20581;-82
2023/03/30 10:20:50;;;;;;;2.10;1.80;;;9.80;82.60;;;;;;5032464;28;20647;-82
2023/03/30 10:23:21;;;;;;;5.60;2.30;;;9.90;83.10;;;;;;5032755;28;20180;-81
2023/03/30 10:25:49;;;;;;;4.07;2.57;;;9.80;84.30;;;;;;5033712;28;20602;-81
2023/03/30 10:28:20;;;;;;;4.37;2.03;;;9.80;83.70;;;;;;5033146;28;20219;-81
2023/03/30 10:30:58;;;;;;;4.80;1.87;;;10.00;84.70;;;;;;5034827;28;20255;-81
2023/03/30 10:33:26;;;;;;;5.80;2.20;;;10.20;83.70;;;;;;5033872;28;20168;-81
2023/03/30 10:35:55;;;;;;;3.07;2.13;;;10.20;81.50;;;;;;5032402;28;20172;-82
2023/03/30 10:38:22;;;;;;;3.17;2.37;;;10.40;81.90;;;;;;5032399;28;20180;-82
2023/03/30 10:40:57;;;;;;;3.85;2.10;;;10.60;83.60;;;;;;5033217;28;20191;-82
2023/03/30 10:43:28;;;;;;;4.32;2.33;;;10.60;82.40;;;;;;5032348;28;20181;-82
2023/03/30 10:45:57;;;;;;;4.00;2.72;;;10.60;81.30;;;;;;5033169;28;20160;-82
2023/03/30 10:48:28;;;;;;;5.10;2.43;;;10.50;82.80;;;;;;5033012;28;20770;-81
2023/03/30 10:51:00;;;;;;;6.95;2.72;;;10.40;83.30;;;;;;5032207;28;20180;-82
2023/03/30 10:53:50;;;;;;;3.17;2.20;;;10.20;82.50;;;;;;5034096;28;20253;-81
2023/03/30 10:56:32;;;;;;;2.97;2.00;;;10.00;83.00;;;;;;5050829;28;20196;-81
2023/03/30 10:59:15;;;;;;;4.33;2.23;;;10.00;83.50;;;;;;5053582;28;20172;-81
2023/03/30 11:02:11;;;;;;;6.67;2.23;;;10.00;84.90;;;;;;5053326;28;20171;-82
2023/03/30 11:04:44;;;;;;;6.20;2.53;;;10.00;83.20;;;;;;5053620;28;20172;-81
2023/03/30 11:07:34;;;;;;;4.50;2.15;;;9.90;85.50;;;;;;5052597;28;20602;-81
2023/03/30 11:10:18;;;;;;;3.67;2.67;;;10.10;85.30;;;;;;5052130;28;20194;-82
2023/03/30 11:13:18;;;;;;;3.43;2.00;;;10.10;83.60;;;;;;5053210;28;20239;-82
2023/03/30 11:15:59;;;;;;;5.47;2.70;;;10.30;85.30;;;;;;5053494;28;20266;-82
2023/03/30 11:18:35;;;;;;;4.87;2.20;;;10.60;84.70;;;;;;5052078;28;20330;-81
2023/03/30 11:21:04;;;;;;;8.95;2.28;;;10.90;83.90;;;;;;5052628;28;20168;-81
2023/03/30 11:23:35;;;;;;;4.00;2.53;;;10.90;82.50;;;;;;5053398;28;20637;-80
2023/03/30 11:26:07;;;;;;;5.60;2.15;;;10.90;81.90;;;;;;5051811;28;20215;-81
2023/03/30 11:28:46;;;;;;;4.40;2.63;;;11.10;82.30;;;;;;5053751;28;20195;-82
2023/03/30 11:31:31;;;;;;;5.97;2.35;;;11.20;81.30;;;;;;5053136;28;20172;-82
2023/03/30 11:34:02;;;;;;;10.13;2.45;;;11.10;83.10;;;;;;5053120;28;20203;-81
2023/03/30 11:36:44;;;;;;;4.85;2.40;;;11.20;82.30;;;;;;5052993;28;20160;-82
2023/03/30 11:39:15;;;;;;;4.90;2.92;;;11.20;82.30;;;;;;5053070;28;20170;-81
2023/03/30 11:41:54;;;;;;;7.50;3.20;;;11.10;83.60;;;;;;5052995;28;20175;-83
2023/03/30 11:44:20;;;;;;;4.10;2.38;;;11.10;83.50;;;;;;5053103;28;20170;-82
2023/03/30 11:46:58;;;;;;;4.80;2.80;;;11.10;84.20;;;;;;5051353;28;20176;-82
2023/03/30 11:49:35;;;;;;;5.68;2.58;;;11.00;82.90;;;;;;5053028;28;20528;-82
2023/03/30 11:52:42;;;;;;;5.30;2.45;;;11.10;82.90;;;;;;5052869;28;20167;-82
2023/03/30 11:55:39;;;;;;;6.72;3.10;;;11.10;82.50;;;;;;5029970;28;20215;-84
2023/03/30 11:58:13;;;;;;;2.58;2.03;;;11.30;83.70;;;;;;5052543;28;20633;-82
2023/03/30 12:00:47;;;;;;;3.42;2.35;;;11.50;84.30;;;;;;5053831;28;20595;-82
2023/03/30 12:03:33;;;;;;;5.25;2.65;;;11.70;82.20;;;;;;5056724;28;20233;-82
2023/03/30 12:06:19;;;;;;;6.47;2.15;;;11.70;83.10;;;;;;5055953;28;20163;-82
2023/03/30 12:09:04;;;;;;;3.85;2.38;;;12.00;82.20;;;;;;5056239;28;20199;-85
2023/03/30 12:11:51;;;;;;;3.35;2.58;;;12.10;81.90;;;;;;5056355;28;20258;-80
2023/03/30 12:14:40;;;;;;;3.30;2.38;;;12.20;81.70;;;;;;5055976;28;20621;-81
2023/03/30 12:17:24;;;;;;;4.15;2.22;;;12.30;82.70;;;;;;5055632;28;20258;-81
2023/03/30 12:20:11;;;;;;;5.03;2.40;;;12.40;82.30;;;;;;5056087;28;20163;-81
2023/03/30 12:23:13;;;;;;;3.45;2.38;;;12.50;80.60;;;;;;5056262;28;20184;-81
2023/03/30 12:26:03;;;;;;;3.58;2.20;;;12.60;80.70;;;;;;5054654;28;20261;-82
2023/03/30 12:28:44;;;;;;;5.57;2.13;;;12.50;78.10;;;;;;5054496;28;20216;-81
2023/03/30 12:31:11;;;;;;;2.25;1.98;;;12.60;78.70;;;;;;5055530;28;20175;-81
2023/03/30 12:33:50;;;;;;;4.68;2.40;;;12.70;77.10;;;;;;5055891;28;20254;-83
2023/03/30 12:36:38;;;;;;;4.07;2.47;;;12.80;77.70;;;;;;5055755;28;20168;-80
2023/03/30 12:39:17;;;;;;;4.32;2.90;;;13.20;80.40;;;;;;5055515;28;20238;-81
2023/03/30 12:41:48;;;;;;;5.28;3.10;;;13.70;78.00;;;;;;5054491;28;20678;-81
2023/03/30 12:44:37;;;;;;;6.28;2.50;;;13.80;78.50;;;;;;5055846;28;20629;-82
2023/03/30 12:47:34;;;;;;;9.27;2.10;;;14.10;77.40;;;;;;5055399;28;20196;-81
2023/03/30 12:50:13;;;;;;;3.65;2.30;;;14.00;74.10;;;;;;5055445;28;20176;-81
2023/03/30 12:53:03;;;;;;;3.40;2.08;;;14.10;75.30;;;;;;5055572;28;20608;-82
2023/03/30 12:56:02;;;;;;;5.47;2.53;;;14.50;73.50;;;;;;5054632;28;20195;-81
2023/03/30 12:58:50;;;;;;;3.10;2.20;;;14.20;72.50;;;;;;5050421;28;20184;-82
2023/03/30 13:01:26;;;;;;;2.67;1.75;;;13.90;74.30;;;;;;5054096;28;20191;-82
2023/03/30 13:03:54;;;;;;;4.63;2.20;;;13.60;73.50;;;;;;5053804;28;20176;-84
2023/03/30 13:06:22;;;;;;;6.30;2.65;;;13.70;74.70;;;;;;5037275;28;20519;-83
2023/03/30 13:08:53;;;;;;;5.65;1.70;;;14.30;71.60;;;;;;5053996;28;20203;-81
2023/03/30 13:11:21;;;;;;;3.08;1.85;;;14.40;69.90;;;;;;5054905;28;20172;-82
2023/03/30 13:13:56;;;;;;;7.00;1.85;;;14.00;71.90;;;;;;5054387;28;20183;-82
2023/03/30 13:16:51;;;;;;;4.20;1.85;;;14.10;70.00;;;;;;5055448;28;20167;-82
2023/03/30 13:19:31;;;;;;;3.92;1.88;;;14.20;70.10;;;;;;5009768;28;20195;-81